sensor_id;sensor_type;location;lat;lon;timestamp;temperature;humidity
44990;DHT22;30723;51.206;3.326;2023-04-25T00:00:54;9.50;99.90
44990;DHT22;30723;51.206;3.326;2023-04-25T00:03:21;9.50;99.90
44990;DHT22;30723;51.206;3.326;2023-04-25T00:05:47;9.50;99.90
44990;DHT22;30723;51.206;3.326;2023-04-25T00:08:14;9.50;99.90
44990;DHT22;30723;51.206;3.326;2023-04-25T00:10:41;9.50;99.90
44990;DHT22;30723;51.206;3.326;2023-04-25T00:13:08;9.40;99.90
44990;DHT22;30723;51.206;3.326;2023-04-25T00:15:36;9.50;99.90
44990;DHT22;30723;51.206;3.326;2023-04-25T00:18:03;9.50;99.90
44990;DHT22;30723;51.206;3.326;2023-04-25T00:20:29;9.50;99.90
44990;DHT22;30723;51.206;3.326;2023-04-25T00:22:56;9.50;99.90
44990;DHT22;30723;51.206;3.326;2023-04-25T00:25:23;9.50;99.90
44990;DHT22;30723;51.206;3.326;2023-04-25T00:27:49;9.50;99.90
44990;DHT22;30723;51.206;3.326;2023-04-25T00:30:15;9.60;99.90
44990;DHT22;30723;51.206;3.326;2023-04-25T00:32:42;9.60;99.90
44990;DHT22;30723;51.206;3.326;2023-04-25T00:35:09;9.60;99.90
44990;DHT22;30723;51.206;3.326;2023-04-25T00:37:36;9.60;99.90
44990;DHT22;30723;51.206;3.326;2023-04-25T00:40:04;9.60;99.90
44990;DHT22;30723;51.206;3.326;2023-04-25T00:42:33;9.40;99.90
44990;DHT22;30723;51.206;3.326;2023-04-25T00:45:00;9.10;99.90
44990;DHT22;30723;51.206;3.326;2023-04-25T00:47:26;8.80;99.90
44990;DHT22;30723;51.206;3.326;2023-04-25T00:49:53;8.70;99.90
44990;DHT22;30723;51.206;3.326;2023-04-25T00:52:20;8.60;99.90
44990;DHT22;30723;51.206;3.326;2023-04-25T00:54:46;8.50;99.90
44990;DHT22;30723;51.206;3.326;2023-04-25T00:57:13;8.50;99.90
44990;DHT22;30723;51.206;3.326;2023-04-25T00:59:45;8.50;99.90
44990;DHT22;30723;51.206;3.326;2023-04-25T01:02:12;8.50;99.90
44990;DHT22;30723;51.206;3.326;2023-04-25T01:04:40;8.40;99.90
44990;DHT22;30723;51.206;3.326;2023-04-25T01:07:07;8.50;99.90
44990;DHT22;30723;51.206;3.326;2023-04-25T01:09:34;8.50;99.90
44990;DHT22;30723;51.206;3.326;2023-04-25T01:12:02;8.60;99.90
44990;DHT22;30723;51.206;3.326;2023-04-25T01:14:29;8.50;99.90
44990;DHT22;30723;51.206;3.326;2023-04-25T01:16:57;8.40;99.90
44990;DHT22;30723;51.206;3.326;2023-04-25T01:19:24;8.40;99.90
44990;DHT22;30723;51.206;3.326;2023-04-25T01:21:51;8.50;99.90
44990;DHT22;30723;51.206;3.326;2023-04-25T01:24:18;8.50;99.90
44990;DHT22;30723;51.206;3.326;2023-04-25T01:26:44;8.50;99.90
44990;DHT22;30723;51.206;3.326;2023-04-25T01:29:16;8.50;99.90
44990;DHT22;30723;51.206;3.326;2023-04-25T01:31:43;8.50;99.90
44990;DHT22;30723;51.206;3.326;2023-04-25T01:34:12;8.60;99.90
44990;DHT22;30723;51.206;3.326;2023-04-25T01:36:40;8.60;99.90
44990;DHT22;30723;51.206;3.326;2023-04-25T01:39:07;8.60;99.90
44990;DHT22;30723;51.206;3.326;2023-04-25T01:41:34;8.70;99.90
44990;DHT22;30723;51.206;3.326;2023-04-25T01:44:03;8.60;99.90
44990;DHT22;30723;51.206;3.326;2023-04-25T01:46:31;8.60;99.90
44990;DHT22;30723;51.206;3.326;2023-04-25T01:48:59;8.60;99.90
44990;DHT22;30723;51.206;3.326;2023-04-25T01:51:24;8.60;99.90
44990;DHT22;30723;51.206;3.326;2023-04-25T01:53:50;8.60;99.90
44990;DHT22;30723;51.206;3.326;2023-04-25T01:56:18;8.50;99.90
44990;DHT22;30723;51.206;3.326;2023-04-25T01:58:43;8.50;99.90
44990;DHT22;30723;51.206;3.326;2023-04-25T02:01:10;8.40;99.90
44990;DHT22;30723;51.206;3.326;2023-04-25T02:03:37;8.40;99.90
44990;DHT22;30723;51.206;3.326;2023-04-25T02:06:05;8.40;99.90
44990;DHT22;30723;51.206;3.326;2023-04-25T02:08:31;8.30;99.90
44990;DHT22;30723;51.206;3.326;2023-04-25T02:10:58;8.30;99.90
44990;DHT22;30723;51.206;3.326;2023-04-25T02:13:24;8.30;99.90
44990;DHT22;30723;51.206;3.326;2023-04-25T02:15:51;8.30;99.90
44990;DHT22;30723;51.206;3.326;2023-04-25T02:18:18;8.40;99.90
44990;DHT22;30723;51.206;3.326;2023-04-25T02:20:45;8.40;99.90
44990;DHT22;30723;51.206;3.326;2023-04-25T02:23:12;8.40;99.90
44990;DHT22;30723;51.206;3.326;2023-04-25T02:25:39;8.40;99.90
44990;DHT22;30723;51.206;3.326;2023-04-25T02:28:06;8.40;99.90
44990;DHT22;30723;51.206;3.326;2023-04-25T02:30:31;8.20;99.90
44990;DHT22;30723;51.206;3.326;2023-04-25T02:32:58;8.00;99.90
44990;DHT22;30723;51.206;3.326;2023-04-25T02:35:25;7.90;99.90
44990;DHT22;30723;51.206;3.326;2023-04-25T02:37:52;7.80;99.90
44990;DHT22;30723;51.206;3.326;2023-04-25T02:40:17;7.70;99.90
44990;DHT22;30723;51.206;3.326;2023-04-25T02:42:43;7.70;99.90
44990;DHT22;30723;51.206;3.326;2023-04-25T02:45:12;7.70;99.90
44990;DHT22;30723;51.206;3.326;2023-04-25T02:47:38;7.70;99.90
44990;DHT22;30723;51.206;3.326;2023-04-25T02:50:07;7.70;99.90
44990;DHT22;30723;51.206;3.326;2023-04-25T02:52:33;7.70;99.90
44990;DHT22;30723;51.206;3.326;2023-04-25T02:54:59;7.80;99.90
44990;DHT22;30723;51.206;3.326;2023-04-25T02:57:26;7.80;99.90
44990;DHT22;30723;51.206;3.326;2023-04-25T02:59:53;7.90;99.90
44990;DHT22;30723;51.206;3.326;2023-04-25T03:02:19;8.00;99.90
44990;DHT22;30723;51.206;3.326;2023-04-25T03:04:46;7.90;99.90
44990;DHT22;30723;51.206;3.326;2023-04-25T03:07:12;8.00;99.90
44990;DHT22;30723;51.206;3.326;2023-04-25T03:09:39;8.00;99.90
44990;DHT22;30723;51.206;3.326;2023-04-25T03:12:06;8.00;99.90
44990;DHT22;30723;51.206;3.326;2023-04-25T03:14:33;8.00;99.90
44990;DHT22;30723;51.206;3.326;2023-04-25T03:17:00;8.00;99.90
44990;DHT22;30723;51.206;3.326;2023-04-25T03:19:34;8.00;99.90
44990;DHT22;30723;51.206;3.326;2023-04-25T03:22:01;8.00;99.90
44990;DHT22;30723;51.206;3.326;2023-04-25T03:24:28;8.00;99.90
44990;DHT22;30723;51.206;3.326;2023-04-25T03:26:53;8.00;99.90
44990;DHT22;30723;51.206;3.326;2023-04-25T03:29:21;8.00;99.90
44990;DHT22;30723;51.206;3.326;2023-04-25T03:31:50;8.00;99.90
44990;DHT22;30723;51.206;3.326;2023-04-25T03:34:15;7.90;99.90
44990;DHT22;30723;51.206;3.326;2023-04-25T03:36:41;7.80;99.90
44990;DHT22;30723;51.206;3.326;2023-04-25T03:39:07;7.60;99.90
44990;DHT22;30723;51.206;3.326;2023-04-25T03:41:33;7.60;99.90
44990;DHT22;30723;51.206;3.326;2023-04-25T03:43:59;7.50;99.90
44990;DHT22;30723;51.206;3.326;2023-04-25T03:46:25;7.50;99.90
44990;DHT22;30723;51.206;3.326;2023-04-25T03:48:50;7.40;99.90
44990;DHT22;30723;51.206;3.326;2023-04-25T03:51:16;7.40;99.90
44990;DHT22;30723;51.206;3.326;2023-04-25T03:53:43;7.40;99.90
44990;DHT22;30723;51.206;3.326;2023-04-25T03:56:10;7.40;99.90
44990;DHT22;30723;51.206;3.326;2023-04-25T03:58:36;7.40;99.90
44990;DHT22;30723;51.206;3.326;2023-04-25T04:01:02;7.40;99.90
44990;DHT22;30723;51.206;3.326;2023-04-25T04:03:34;7.40;99.90
44990;DHT22;30723;51.206;3.326;2023-04-25T04:06:03;7.50;99.90
44990;DHT22;30723;51.206;3.326;2023-04-25T04:08:30;7.50;99.90
44990;DHT22;30723;51.206;3.326;2023-04-25T04:10:58;7.60;99.90
44990;DHT22;30723;51.206;3.326;2023-04-25T04:13:27;7.60;99.90
44990;DHT22;30723;51.206;3.326;2023-04-25T04:15:53;7.70;99.90
44990;DHT22;30723;51.206;3.326;2023-04-25T04:18:20;7.80;99.90
44990;DHT22;30723;51.206;3.326;2023-04-25T04:20:47;7.80;99.90
44990;DHT22;30723;51.206;3.326;2023-04-25T04:23:14;7.70;99.90
44990;DHT22;30723;51.206;3.326;2023-04-25T04:25:40;7.80;99.90
44990;DHT22;30723;51.206;3.326;2023-04-25T04:28:08;7.90;99.90
44990;DHT22;30723;51.206;3.326;2023-04-25T04:30:34;7.80;99.90
44990;DHT22;30723;51.206;3.326;2023-04-25T04:33:02;7.80;99.90
44990;DHT22;30723;51.206;3.326;2023-04-25T04:35:29;7.80;99.90
44990;DHT22;30723;51.206;3.326;2023-04-25T04:37:55;7.80;99.90
44990;DHT22;30723;51.206;3.326;2023-04-25T04:40:22;7.80;99.90
44990;DHT22;30723;51.206;3.326;2023-04-25T04:42:48;7.80;99.90
44990;DHT22;30723;51.206;3.326;2023-04-25T04:45:14;7.80;99.90
44990;DHT22;30723;51.206;3.326;2023-04-25T04:47:40;7.90;99.90
44990;DHT22;30723;51.206;3.326;2023-04-25T04:50:09;7.90;99.90
44990;DHT22;30723;51.206;3.326;2023-04-25T04:52:36;8.00;99.90
44990;DHT22;30723;51.206;3.326;2023-04-25T04:55:03;8.00;99.90
44990;DHT22;30723;51.206;3.326;2023-04-25T04:57:29;8.00;99.90
44990;DHT22;30723;51.206;3.326;2023-04-25T04:59:56;8.00;99.90
44990;DHT22;30723;51.206;3.326;2023-04-25T05:02:22;8.10;99.90
44990;DHT22;30723;51.206;3.326;2023-04-25T05:04:48;8.00;99.90
44990;DHT22;30723;51.206;3.326;2023-04-25T05:07:14;8.00;99.90
44990;DHT22;30723;51.206;3.326;2023-04-25T05:09:40;7.90;99.90
44990;DHT22;30723;51.206;3.326;2023-04-25T05:12:06;7.80;99.90
44990;DHT22;30723;51.206;3.326;2023-04-25T05:14:33;7.70;99.90
44990;DHT22;30723;51.206;3.326;2023-04-25T05:16:59;7.60;99.90
44990;DHT22;30723;51.206;3.326;2023-04-25T05:19:26;7.60;99.90
44990;DHT22;30723;51.206;3.326;2023-04-25T05:21:53;7.60;99.90
44990;DHT22;30723;51.206;3.326;2023-04-25T05:24:20;7.70;99.90
44990;DHT22;30723;51.206;3.326;2023-04-25T05:26:46;7.70;99.90
44990;DHT22;30723;51.206;3.326;2023-04-25T05:29:13;7.80;99.90
44990;DHT22;30723;51.206;3.326;2023-04-25T05:31:39;7.70;99.90
44990;DHT22;30723;51.206;3.326;2023-04-25T05:34:06;7.70;99.90
44990;DHT22;30723;51.206;3.326;2023-04-25T05:36:33;7.80;99.90
44990;DHT22;30723;51.206;3.326;2023-04-25T05:39:00;7.90;99.90
44990;DHT22;30723;51.206;3.326;2023-04-25T05:41:27;7.90;99.90
44990;DHT22;30723;51.206;3.326;2023-04-25T05:43:54;8.00;99.90
44990;DHT22;30723;51.206;3.326;2023-04-25T05:46:19;8.00;99.90
44990;DHT22;30723;51.206;3.326;2023-04-25T05:48:46;8.00;99.90
44990;DHT22;30723;51.206;3.326;2023-04-25T05:51:13;8.00;99.90
44990;DHT22;30723;51.206;3.326;2023-04-25T05:53:40;8.00;99.90
44990;DHT22;30723;51.206;3.326;2023-04-25T05:56:07;8.20;99.90
44990;DHT22;30723;51.206;3.326;2023-04-25T05:58:34;8.40;99.90
44990;DHT22;30723;51.206;3.326;2023-04-25T06:01:01;8.50;99.90
44990;DHT22;30723;51.206;3.326;2023-04-25T06:03:28;8.70;99.90
44990;DHT22;30723;51.206;3.326;2023-04-25T06:05:55;8.80;99.90
44990;DHT22;30723;51.206;3.326;2023-04-25T06:08:21;8.80;99.90
44990;DHT22;30723;51.206;3.326;2023-04-25T06:10:47;8.80;99.90
44990;DHT22;30723;51.206;3.326;2023-04-25T06:13:14;8.90;99.90
44990;DHT22;30723;51.206;3.326;2023-04-25T06:15:41;8.90;99.90
44990;DHT22;30723;51.206;3.326;2023-04-25T06:18:08;8.90;99.90
44990;DHT22;30723;51.206;3.326;2023-04-25T06:20:35;9.10;99.90
44990;DHT22;30723;51.206;3.326;2023-04-25T06:23:02;9.50;99.90
44990;DHT22;30723;51.206;3.326;2023-04-25T06:25:28;9.90;99.90
44990;DHT22;30723;51.206;3.326;2023-04-25T06:27:55;10.10;99.90
44990;DHT22;30723;51.206;3.326;2023-04-25T06:30:21;10.00;99.90
44990;DHT22;30723;51.206;3.326;2023-04-25T06:32:52;9.90;99.90
44990;DHT22;30723;51.206;3.326;2023-04-25T06:35:18;10.10;99.90
44990;DHT22;30723;51.206;3.326;2023-04-25T06:37:45;10.20;99.90
44990;DHT22;30723;51.206;3.326;2023-04-25T06:40:12;10.70;99.90
44990;DHT22;30723;51.206;3.326;2023-04-25T06:42:38;11.10;99.90
44990;DHT22;30723;51.206;3.326;2023-04-25T06:45:06;11.80;99.90
44990;DHT22;30723;51.206;3.326;2023-04-25T06:47:33;12.10;99.90
44990;DHT22;30723;51.206;3.326;2023-04-25T06:50:00;12.20;99.90
44990;DHT22;30723;51.206;3.326;2023-04-25T06:52:27;13.20;99.90
44990;DHT22;30723;51.206;3.326;2023-04-25T06:54:54;13.40;99.90
44990;DHT22;30723;51.206;3.326;2023-04-25T06:57:20;13.90;99.90
44990;DHT22;30723;51.206;3.326;2023-04-25T06:59:47;13.90;99.90
44990;DHT22;30723;51.206;3.326;2023-04-25T07:02:13;13.10;99.90
44990;DHT22;30723;51.206;3.326;2023-04-25T07:04:40;12.50;99.90
44990;DHT22;30723;51.206;3.326;2023-04-25T07:07:07;11.70;99.90
44990;DHT22;30723;51.206;3.326;2023-04-25T07:09:33;11.30;99.90
44990;DHT22;30723;51.206;3.326;2023-04-25T07:12:03;11.10;99.90
44990;DHT22;30723;51.206;3.326;2023-04-25T07:14:30;10.60;99.90
44990;DHT22;30723;51.206;3.326;2023-04-25T07:16:56;10.70;99.90
44990;DHT22;30723;51.206;3.326;2023-04-25T07:19:23;10.60;99.90
44990;DHT22;30723;51.206;3.326;2023-04-25T07:21:53;10.70;99.90
44990;DHT22;30723;51.206;3.326;2023-04-25T07:24:20;10.90;99.90
44990;DHT22;30723;51.206;3.326;2023-04-25T07:26:45;11.00;99.90
44990;DHT22;30723;51.206;3.326;2023-04-25T07:29:13;11.20;99.90
44990;DHT22;30723;51.206;3.326;2023-04-25T07:31:40;11.30;99.90
44990;DHT22;30723;51.206;3.326;2023-04-25T07:34:06;11.30;99.90
44990;DHT22;30723;51.206;3.326;2023-04-25T07:36:34;11.40;99.90
44990;DHT22;30723;51.206;3.326;2023-04-25T07:39:00;11.60;99.90
44990;DHT22;30723;51.206;3.326;2023-04-25T07:41:26;11.40;99.90
44990;DHT22;30723;51.206;3.326;2023-04-25T07:43:52;12.00;99.90
44990;DHT22;30723;51.206;3.326;2023-04-25T07:46:19;13.20;99.90
44990;DHT22;30723;51.206;3.326;2023-04-25T07:48:45;14.00;99.90
44990;DHT22;30723;51.206;3.326;2023-04-25T07:51:11;14.90;99.90
44990;DHT22;30723;51.206;3.326;2023-04-25T07:53:38;15.10;99.90
44990;DHT22;30723;51.206;3.326;2023-04-25T07:56:05;14.90;99.90
44990;DHT22;30723;51.206;3.326;2023-04-25T07:58:31;14.10;99.90
44990;DHT22;30723;51.206;3.326;2023-04-25T08:00:58;13.60;99.90
44990;DHT22;30723;51.206;3.326;2023-04-25T08:03:25;13.30;99.90
44990;DHT22;30723;51.206;3.326;2023-04-25T08:05:52;12.60;99.90
44990;DHT22;30723;51.206;3.326;2023-04-25T08:08:18;11.90;99.90
44990;DHT22;30723;51.206;3.326;2023-04-25T08:10:45;11.40;99.90
44990;DHT22;30723;51.206;3.326;2023-04-25T08:13:12;11.00;99.90
44990;DHT22;30723;51.206;3.326;2023-04-25T08:15:38;10.80;99.90
44990;DHT22;30723;51.206;3.326;2023-04-25T08:18:05;10.60;99.90
44990;DHT22;30723;51.206;3.326;2023-04-25T08:20:32;10.60;99.90
44990;DHT22;30723;51.206;3.326;2023-04-25T08:22:59;10.80;99.90
44990;DHT22;30723;51.206;3.326;2023-04-25T08:25:26;10.60;99.90
44990;DHT22;30723;51.206;3.326;2023-04-25T08:27:52;10.50;99.90
44990;DHT22;30723;51.206;3.326;2023-04-25T08:30:18;10.60;99.90
44990;DHT22;30723;51.206;3.326;2023-04-25T08:32:45;11.00;99.90
44990;DHT22;30723;51.206;3.326;2023-04-25T08:35:11;11.10;99.90
44990;DHT22;30723;51.206;3.326;2023-04-25T08:37:38;11.20;99.90
44990;DHT22;30723;51.206;3.326;2023-04-25T08:40:07;11.50;99.90
44990;DHT22;30723;51.206;3.326;2023-04-25T08:42:38;12.00;99.90
44990;DHT22;30723;51.206;3.326;2023-04-25T08:45:09;12.80;99.90
44990;DHT22;30723;51.206;3.326;2023-04-25T08:47:37;13.60;99.90
44990;DHT22;30723;51.206;3.326;2023-04-25T08:50:06;13.60;99.90
44990;DHT22;30723;51.206;3.326;2023-04-25T08:52:53;13.70;99.90
44990;DHT22;30723;51.206;3.326;2023-04-25T08:55:21;13.80;99.90
44990;DHT22;30723;51.206;3.326;2023-04-25T08:57:56;13.80;99.90
44990;DHT22;30723;51.206;3.326;2023-04-25T09:00:23;13.70;99.90
44990;DHT22;30723;51.206;3.326;2023-04-25T09:02:50;13.70;99.90
44990;DHT22;30723;51.206;3.326;2023-04-25T09:05:18;13.40;99.90
44990;DHT22;30723;51.206;3.326;2023-04-25T09:07:45;13.00;99.90
44990;DHT22;30723;51.206;3.326;2023-04-25T09:10:10;12.70;99.90
44990;DHT22;30723;51.206;3.326;2023-04-25T09:12:38;12.00;99.90
44990;DHT22;30723;51.206;3.326;2023-04-25T09:15:09;11.90;99.90
44990;DHT22;30723;51.206;3.326;2023-04-25T09:17:35;11.80;99.90
44990;DHT22;30723;51.206;3.326;2023-04-25T09:20:08;11.50;99.90
44990;DHT22;30723;51.206;3.326;2023-04-25T09:22:35;11.30;99.90
44990;DHT22;30723;51.206;3.326;2023-04-25T09:25:10;11.20;99.90
44990;DHT22;30723;51.206;3.326;2023-04-25T09:27:50;11.20;99.90
44990;DHT22;30723;51.206;3.326;2023-04-25T09:30:17;11.50;99.90
44990;DHT22;30723;51.206;3.326;2023-04-25T09:32:44;11.90;99.90
44990;DHT22;30723;51.206;3.326;2023-04-25T09:35:11;12.10;99.90
44990;DHT22;30723;51.206;3.326;2023-04-25T09:37:49;12.40;99.90
44990;DHT22;30723;51.206;3.326;2023-04-25T09:40:19;14.00;99.90
44990;DHT22;30723;51.206;3.326;2023-04-25T09:42:46;14.90;99.90
44990;DHT22;30723;51.206;3.326;2023-04-25T09:45:16;16.00;99.90
44990;DHT22;30723;51.206;3.326;2023-04-25T09:47:43;17.60;99.90
44990;DHT22;30723;51.206;3.326;2023-04-25T09:50:17;18.20;99.90
44990;DHT22;30723;51.206;3.326;2023-04-25T09:52:45;18.60;99.90
44990;DHT22;30723;51.206;3.326;2023-04-25T09:55:12;19.00;99.90
44990;DHT22;30723;51.206;3.326;2023-04-25T09:57:39;21.00;99.90
44990;DHT22;30723;51.206;3.326;2023-04-25T10:00:10;23.00;92.30
44990;DHT22;30723;51.206;3.326;2023-04-25T10:02:39;24.60;83.60
44990;DHT22;30723;51.206;3.326;2023-04-25T10:05:09;24.90;77.90
44990;DHT22;30723;51.206;3.326;2023-04-25T10:07:36;23.50;76.40
44990;DHT22;30723;51.206;3.326;2023-04-25T10:10:06;24.00;76.10
44990;DHT22;30723;51.206;3.326;2023-04-25T10:12:34;25.90;75.50
44990;DHT22;30723;51.206;3.326;2023-04-25T10:15:02;25.80;68.80
44990;DHT22;30723;51.206;3.326;2023-04-25T10:17:29;25.40;62.80
44990;DHT22;30723;51.206;3.326;2023-04-25T10:19:55;25.80;63.90
44990;DHT22;30723;51.206;3.326;2023-04-25T10:22:46;26.00;61.70
44990;DHT22;30723;51.206;3.326;2023-04-25T10:25:30;25.60;61.30
44990;DHT22;30723;51.206;3.326;2023-04-25T10:27:56;25.30;59.10
44990;DHT22;30723;51.206;3.326;2023-04-25T10:30:22;22.80;59.20
44990;DHT22;30723;51.206;3.326;2023-04-25T10:32:49;21.20;63.50
44990;DHT22;30723;51.206;3.326;2023-04-25T10:35:27;19.20;68.50
44990;DHT22;30723;51.206;3.326;2023-04-25T10:40:33;21.70;68.30
44990;DHT22;30723;51.206;3.326;2023-04-25T10:46:22;22.20;63.20
44990;DHT22;30723;51.206;3.326;2023-04-25T10:49:01;22.60;60.40
44990;DHT22;30723;51.206;3.326;2023-04-25T10:51:30;21.70;62.60
44990;DHT22;30723;51.206;3.326;2023-04-25T10:59:04;23.50;66.50
44990;DHT22;30723;51.206;3.326;2023-04-25T11:01:38;25.30;61.50
44990;DHT22;30723;51.206;3.326;2023-04-25T11:04:04;25.40;60.40
44990;DHT22;30723;51.206;3.326;2023-04-25T11:09:16;21.00;65.40
44990;DHT22;30723;51.206;3.326;2023-04-25T11:11:53;19.60;71.40
44990;DHT22;30723;51.206;3.326;2023-04-25T11:14:20;18.40;71.50
44990;DHT22;30723;51.206;3.326;2023-04-25T11:16:54;17.40;75.60
44990;DHT22;30723;51.206;3.326;2023-04-25T11:19:41;16.30;85.60
44990;DHT22;30723;51.206;3.326;2023-04-25T11:22:09;15.10;94.20
44990;DHT22;30723;51.206;3.326;2023-04-25T11:24:36;14.20;98.30
44990;DHT22;30723;51.206;3.326;2023-04-25T11:27:04;13.30;99.90
44990;DHT22;30723;51.206;3.326;2023-04-25T11:29:32;12.80;99.90
44990;DHT22;30723;51.206;3.326;2023-04-25T11:31:59;13.00;99.90
44990;DHT22;30723;51.206;3.326;2023-04-25T11:34:27;12.80;99.90
44990;DHT22;30723;51.206;3.326;2023-04-25T11:36:57;13.00;99.90
44990;DHT22;30723;51.206;3.326;2023-04-25T11:39:43;13.30;99.90
44990;DHT22;30723;51.206;3.326;2023-04-25T11:42:11;13.80;99.90
44990;DHT22;30723;51.206;3.326;2023-04-25T11:44:57;14.40;99.90
44990;DHT22;30723;51.206;3.326;2023-04-25T11:47:32;14.90;99.90
44990;DHT22;30723;51.206;3.326;2023-04-25T11:49:59;15.50;99.90
44990;DHT22;30723;51.206;3.326;2023-04-25T11:52:35;15.80;99.30
44990;DHT22;30723;51.206;3.326;2023-04-25T11:55:04;16.10;96.50
44990;DHT22;30723;51.206;3.326;2023-04-25T11:57:32;16.00;97.10
44990;DHT22;30723;51.206;3.326;2023-04-25T12:00:15;17.10;96.30
44990;DHT22;30723;51.206;3.326;2023-04-25T12:03:02;17.40;94.90
44990;DHT22;30723;51.206;3.326;2023-04-25T12:05:31;16.80;91.10
44990;DHT22;30723;51.206;3.326;2023-04-25T12:08:14;16.30;90.80
44990;DHT22;30723;51.206;3.326;2023-04-25T12:10:41;15.90;91.60
44990;DHT22;30723;51.206;3.326;2023-04-25T12:13:22;15.40;92.10
44990;DHT22;30723;51.206;3.326;2023-04-25T12:15:48;15.40;92.60
44990;DHT22;30723;51.206;3.326;2023-04-25T12:18:15;15.10;91.70
44990;DHT22;30723;51.206;3.326;2023-04-25T12:20:44;16.40;91.80
44990;DHT22;30723;51.206;3.326;2023-04-25T12:23:11;17.60;90.20
44990;DHT22;30723;51.206;3.326;2023-04-25T12:25:42;18.70;85.20
44990;DHT22;30723;51.206;3.326;2023-04-25T12:28:20;19.80;81.20
44990;DHT22;30723;51.206;3.326;2023-04-25T12:31:05;20.80;78.20
44990;DHT22;30723;51.206;3.326;2023-04-25T12:33:36;22.60;71.30
44990;DHT22;30723;51.206;3.326;2023-04-25T12:36:03;21.80;67.20
44990;DHT22;30723;51.206;3.326;2023-04-25T12:38:36;20.70;68.90
44990;DHT22;30723;51.206;3.326;2023-04-25T12:41:03;19.80;73.90
44990;DHT22;30723;51.206;3.326;2023-04-25T12:43:30;20.50;73.20
44990;DHT22;30723;51.206;3.326;2023-04-25T12:45:57;21.80;75.20
44990;DHT22;30723;51.206;3.326;2023-04-25T12:48:24;24.30;69.80
44990;DHT22;30723;51.206;3.326;2023-04-25T12:50:52;23.00;67.70
44990;DHT22;30723;51.206;3.326;2023-04-25T12:53:21;24.20;66.80
44990;DHT22;30723;51.206;3.326;2023-04-25T12:55:48;24.00;63.10
44990;DHT22;30723;51.206;3.326;2023-04-25T12:58:19;22.40;63.80
44990;DHT22;30723;51.206;3.326;2023-04-25T13:00:46;20.40;66.10
44990;DHT22;30723;51.206;3.326;2023-04-25T13:03:13;19.10;69.60
44990;DHT22;30723;51.206;3.326;2023-04-25T13:05:39;19.20;72.20
44990;DHT22;30723;51.206;3.326;2023-04-25T13:08:06;20.40;72.50
44990;DHT22;30723;51.206;3.326;2023-04-25T13:10:33;21.90;70.00
44990;DHT22;30723;51.206;3.326;2023-04-25T13:13:00;21.50;68.00
44990;DHT22;30723;51.206;3.326;2023-04-25T13:15:28;22.80;67.40
44990;DHT22;30723;51.206;3.326;2023-04-25T13:17:54;23.30;68.90
44990;DHT22;30723;51.206;3.326;2023-04-25T13:20:22;23.90;64.20
44990;DHT22;30723;51.206;3.326;2023-04-25T13:22:49;23.60;63.10
44990;DHT22;30723;51.206;3.326;2023-04-25T13:25:15;22.60;64.80
44990;DHT22;30723;51.206;3.326;2023-04-25T13:27:41;21.90;63.30
44990;DHT22;30723;51.206;3.326;2023-04-25T13:30:09;21.50;67.40
44990;DHT22;30723;51.206;3.326;2023-04-25T13:32:36;22.10;65.20
44990;DHT22;30723;51.206;3.326;2023-04-25T13:35:09;22.50;64.00
44990;DHT22;30723;51.206;3.326;2023-04-25T13:37:37;23.00;63.60
44990;DHT22;30723;51.206;3.326;2023-04-25T13:40:10;22.90;66.60
44990;DHT22;30723;51.206;3.326;2023-04-25T13:42:56;22.00;67.00
44990;DHT22;30723;51.206;3.326;2023-04-25T13:45:23;20.10;67.40
44990;DHT22;30723;51.206;3.326;2023-04-25T13:47:50;20.10;76.20
44990;DHT22;30723;51.206;3.326;2023-04-25T13:50:17;20.30;74.10
44990;DHT22;30723;51.206;3.326;2023-04-25T13:52:44;19.00;76.00
44990;DHT22;30723;51.206;3.326;2023-04-25T13:55:12;17.80;81.70
44990;DHT22;30723;51.206;3.326;2023-04-25T13:57:39;17.00;88.10
44990;DHT22;30723;51.206;3.326;2023-04-25T14:00:05;16.20;91.10
44990;DHT22;30723;51.206;3.326;2023-04-25T14:02:38;15.60;94.20
44990;DHT22;30723;51.206;3.326;2023-04-25T14:05:06;15.40;93.90
44990;DHT22;30723;51.206;3.326;2023-04-25T14:07:53;14.90;95.00
44990;DHT22;30723;51.206;3.326;2023-04-25T14:10:19;14.90;96.90
44990;DHT22;30723;51.206;3.326;2023-04-25T14:12:46;15.00;97.10
44990;DHT22;30723;51.206;3.326;2023-04-25T14:15:13;14.80;95.50
44990;DHT22;30723;51.206;3.326;2023-04-25T14:17:39;15.20;97.00
44990;DHT22;30723;51.206;3.326;2023-04-25T14:20:06;16.80;91.70
44990;DHT22;30723;51.206;3.326;2023-04-25T14:22:34;18.30;90.10
44990;DHT22;30723;51.206;3.326;2023-04-25T14:25:01;20.20;78.80
44990;DHT22;30723;51.206;3.326;2023-04-25T14:27:28;21.10;71.60
44990;DHT22;30723;51.206;3.326;2023-04-25T14:29:54;21.70;67.60
44990;DHT22;30723;51.206;3.326;2023-04-25T14:32:19;21.20;67.50
44990;DHT22;30723;51.206;3.326;2023-04-25T14:34:47;22.30;69.00
44990;DHT22;30723;51.206;3.326;2023-04-25T14:37:13;21.60;63.90
44990;DHT22;30723;51.206;3.326;2023-04-25T14:39:39;20.10;68.90
44990;DHT22;30723;51.206;3.326;2023-04-25T14:42:05;18.70;73.50
44990;DHT22;30723;51.206;3.326;2023-04-25T14:44:30;17.10;77.90
44990;DHT22;30723;51.206;3.326;2023-04-25T14:46:56;17.30;80.60
44990;DHT22;30723;51.206;3.326;2023-04-25T14:49:23;17.60;75.10
44990;DHT22;30723;51.206;3.326;2023-04-25T14:51:48;17.60;74.80
44990;DHT22;30723;51.206;3.326;2023-04-25T14:54:15;18.60;71.90
44990;DHT22;30723;51.206;3.326;2023-04-25T14:56:42;20.00;72.10
44990;DHT22;30723;51.206;3.326;2023-04-25T14:59:08;20.60;66.50
44990;DHT22;30723;51.206;3.326;2023-04-25T15:01:33;19.50;68.50
44990;DHT22;30723;51.206;3.326;2023-04-25T15:04:00;19.60;68.00
44990;DHT22;30723;51.206;3.326;2023-04-25T15:06:26;19.40;68.90
44990;DHT22;30723;51.206;3.326;2023-04-25T15:08:54;18.10;71.70
44990;DHT22;30723;51.206;3.326;2023-04-25T15:11:20;17.20;74.60
44990;DHT22;30723;51.206;3.326;2023-04-25T15:13:46;16.40;77.20
44990;DHT22;30723;51.206;3.326;2023-04-25T15:16:11;16.70;78.20
44990;DHT22;30723;51.206;3.326;2023-04-25T15:18:37;17.70;73.60
44990;DHT22;30723;51.206;3.326;2023-04-25T15:21:03;18.10;72.80
44990;DHT22;30723;51.206;3.326;2023-04-25T15:23:29;19.00;71.20
44990;DHT22;30723;51.206;3.326;2023-04-25T15:25:56;19.90;69.80
44990;DHT22;30723;51.206;3.326;2023-04-25T15:28:22;21.60;66.60
44990;DHT22;30723;51.206;3.326;2023-04-25T15:30:48;21.10;66.60
44990;DHT22;30723;51.206;3.326;2023-04-25T15:33:15;20.70;67.40
44990;DHT22;30723;51.206;3.326;2023-04-25T15:35:41;21.20;69.60
44990;DHT22;30723;51.206;3.326;2023-04-25T15:38:08;21.20;69.10
44990;DHT22;30723;51.206;3.326;2023-04-25T15:40:36;21.60;68.10
44990;DHT22;30723;51.206;3.326;2023-04-25T15:43:02;21.70;67.40
44990;DHT22;30723;51.206;3.326;2023-04-25T15:45:27;20.90;66.70
44990;DHT22;30723;51.206;3.326;2023-04-25T15:47:55;20.50;71.00
44990;DHT22;30723;51.206;3.326;2023-04-25T15:50:23;20.60;67.90
44990;DHT22;30723;51.206;3.326;2023-04-25T15:52:53;20.00;71.20
44990;DHT22;30723;51.206;3.326;2023-04-25T15:55:20;20.20;70.40